Sheridan, Illinois
Current Conditions -  °F | °C
As of 8:35 PM on Saturday 20 Dec 2014 (Local Time) from KC09 Reporting Station
Overcast Overcast  
Wind Chill: 27°   Ceiling: 3100
Heat Index: 32°   Visibility: 10mi
Dew Point: 30°   Wind: 6mph
Humidity: 91%   Direction: 160°SSE
Pressure: 30.26"   Gusts: NA
Location:  41.53°N, 88.68°W
Report Text: KC09 210235Z AUTO 16005KT 10SM OVC031 00/M01 A3026 RMK AO2 T00011012
Loading
Personal Weather Stations






























Interactive Weather Map New forecast layout! Learn more

10-Day Weather Forecast

Advertisements
Track Severe Weather on mobile